Time;durP1;ratioP1;P1;durP2;ratioP2;P2;SDS_P1;SDS_P2;PMS_P1;PMS_P2;Temp;Humidity;BMP_temperature;BMP_pressure;BME280_temperature;BME280_humidity;BME280_pressure;Samples;Min_cycle;Max_cycle;Signal;HPM_P1;HPM_P2
2022/08/02 00:01:53;;;;;;;1.05;0.95;;;24.90;56.80;;;;;;4982792;28;20197;-75
2022/08/02 00:04:20;;;;;;;0.90;0.90;;;24.90;56.70;;;;;;4999169;28;20332;-75
2022/08/02 00:06:47;;;;;;;1.25;1.10;;;24.90;56.80;;;;;;5016353;28;20220;-75
2022/08/02 00:09:16;;;;;;;1.48;1.08;;;24.90;56.80;;;;;;4998991;28;20547;-75
2022/08/02 00:11:43;;;;;;;1.15;1.05;;;24.90;56.80;;;;;;4998901;28;20263;-75
2022/08/02 00:14:10;;;;;;;1.33;1.00;;;24.90;56.80;;;;;;4998915;28;20201;-75
2022/08/02 00:16:37;;;;;;;1.10;1.00;;;24.90;56.80;;;;;;4999143;28;20205;-75
2022/08/02 00:19:04;;;;;;;1.40;0.98;;;24.90;56.90;;;;;;4999127;28;20255;-74
2022/08/02 00:21:31;;;;;;;1.33;0.90;;;24.90;56.90;;;;;;4998773;28;20197;-75
2022/08/02 00:23:57;;;;;;;1.30;1.00;;;24.80;56.60;;;;;;4998740;28;20675;-75
2022/08/02 00:26:26;;;;;;;0.70;0.70;;;24.80;56.80;;;;;;4998824;28;20225;-75
2022/08/02 00:28:52;;;;;;;1.38;0.90;;;24.80;56.60;;;;;;4998633;28;20258;-75
2022/08/02 00:31:20;;;;;;;0.88;0.88;;;24.80;56.80;;;;;;4998689;28;20200;-75
2022/08/02 00:33:46;;;;;;;0.90;0.90;;;24.80;56.70;;;;;;4998442;28;20320;-75
2022/08/02 00:36:14;;;;;;;1.40;1.08;;;24.80;56.80;;;;;;4998562;28;20209;-75
2022/08/02 00:38:41;;;;;;;0.85;0.85;;;24.80;56.80;;;;;;4998681;28;20204;-75
2022/08/02 00:41:12;;;;;;;1.05;0.95;;;24.70;56.70;;;;;;4998420;28;20205;-75
2022/08/02 00:43:40;;;;;;;0.90;0.90;;;24.70;56.70;;;;;;5016114;28;20207;-75
2022/08/02 00:46:07;;;;;;;1.02;0.93;;;24.70;56.70;;;;;;4998240;28;20734;-75
2022/08/02 00:48:35;;;;;;;1.83;0.90;;;24.70;56.70;;;;;;4998374;28;20296;-74
2022/08/02 00:51:02;;;;;;;1.02;0.90;;;24.70;57.30;;;;;;4998289;28;20200;-75
2022/08/02 00:53:29;;;;;;;1.55;0.80;;;24.70;56.60;;;;;;4998177;28;20596;-74
2022/08/02 00:55:56;;;;;;;1.35;0.70;;;24.70;56.60;;;;;;4982206;28;20216;-75
2022/08/02 00:58:23;;;;;;;0.82;0.70;;;24.70;56.50;;;;;;4997451;28;20200;-74
2022/08/02 01:00:51;;;;;;;1.48;0.98;;;24.60;56.60;;;;;;4997989;28;20243;-74
2022/08/02 01:03:18;;;;;;;1.92;1.10;;;24.60;56.60;;;;;;4999379;28;20205;-74
2022/08/02 01:05:46;;;;;;;1.40;0.80;;;24.60;56.50;;;;;;4966611;28;20216;-74
2022/08/02 01:08:13;;;;;;;0.80;0.75;;;24.70;56.60;;;;;;4981926;28;20279;-75
2022/08/02 01:10:40;;;;;;;1.33;1.00;;;24.60;56.50;;;;;;4998489;28;20209;-75
2022/08/02 01:13:06;;;;;;;1.15;0.75;;;24.60;56.40;;;;;;4998603;28;20200;-74
2022/08/02 01:15:34;;;;;;;0.90;0.90;;;24.60;56.60;;;;;;4997655;28;20204;-75
2022/08/02 01:18:04;;;;;;;1.25;0.80;;;24.60;56.60;;;;;;4997709;28;20248;-74
2022/08/02 01:20:46;;;;;;;2.25;1.08;;;24.60;56.60;;;;;;4998124;28;20595;-74
2022/08/02 01:23:19;;;;;;;1.48;1.05;;;24.50;56.50;;;;;;4997742;28;20283;-75
2022/08/02 01:25:57;;;;;;;0.80;0.80;;;24.50;56.40;;;;;;4997738;28;20714;-74
2022/08/02 01:28:35;;;;;;;0.88;0.85;;;24.50;56.40;;;;;;4998590;28;20193;-74
2022/08/02 01:31:08;;;;;;;0.70;0.70;;;24.50;56.60;;;;;;4998619;28;20204;-75
2022/08/02 01:33:36;;;;;;;1.05;0.90;;;24.50;56.50;;;;;;4998627;28;20200;-74
2022/08/02 01:36:04;;;;;;;2.42;1.25;;;24.50;56.60;;;;;;4997509;28;20283;-75
2022/08/02 01:38:34;;;;;;;0.95;0.90;;;24.50;56.60;;;;;;4997374;28;20629;-74
2022/08/02 01:41:01;;;;;;;0.98;0.90;;;24.50;56.60;;;;;;4997011;28;20212;-74
2022/08/02 01:43:28;;;;;;;1.08;1.00;;;24.50;56.60;;;;;;4997208;28;20750;-75
2022/08/02 01:45:57;;;;;;;1.25;1.17;;;24.50;56.40;;;;;;4997110;28;20220;-74
2022/08/02 01:48:25;;;;;;;1.10;1.00;;;24.40;56.50;;;;;;4997948;28;20216;-75
2022/08/02 01:50:52;;;;;;;1.35;1.10;;;24.40;57.10;;;;;;4997707;28;20578;-75
2022/08/02 01:53:19;;;;;;;1.27;1.17;;;24.40;56.50;;;;;;4997702;28;20300;-75
2022/08/02 01:55:48;;;;;;;1.33;1.20;;;24.40;56.40;;;;;;4996955;28;20594;-74
2022/08/02 01:58:17;;;;;;;1.20;1.10;;;24.40;56.50;;;;;;4997319;28;20671;-74
2022/08/02 02:00:44;;;;;;;1.20;1.10;;;24.40;56.40;;;;;;4996926;28;20287;-75
2022/08/02 02:03:15;;;;;;;1.30;1.20;;;24.40;56.40;;;;;;4997008;28;20251;-74
2022/08/02 02:05:42;;;;;;;1.17;1.08;;;24.40;56.40;;;;;;4997072;28;20617;-74
2022/08/02 02:08:10;;;;;;;1.42;1.27;;;24.40;56.40;;;;;;4997000;28;20220;-75
2022/08/02 02:10:38;;;;;;;1.27;1.17;;;24.40;56.40;;;;;;4996859;28;20192;-74
2022/08/02 02:13:13;;;;;;;1.80;1.20;;;24.40;56.50;;;;;;5000180;28;20251;-74
2022/08/02 02:15:43;;;;;;;2.88;1.48;;;24.40;56.60;;;;;;4997020;28;20193;-74
2022/08/02 02:18:11;;;;;;;2.38;1.25;;;24.30;56.50;;;;;;4997403;28;20197;-74
2022/08/02 02:20:39;;;;;;;1.40;1.30;;;24.30;56.50;;;;;;4981097;28;20201;-74
2022/08/02 02:23:06;;;;;;;1.40;1.30;;;24.30;56.50;;;;;;4996998;28;20232;-74
2022/08/02 02:25:34;;;;;;;1.30;1.20;;;24.30;56.60;;;;;;4996971;28;20203;-75
2022/08/02 02:28:02;;;;;;;1.50;1.40;;;24.30;56.60;;;;;;4997786;28;20226;-74
2022/08/02 02:30:29;;;;;;;1.45;1.35;;;24.30;56.60;;;;;;4997212;28;20208;-75
2022/08/02 02:32:58;;;;;;;1.20;1.15;;;24.30;56.60;;;;;;4997139;28;20197;-75
2022/08/02 02:35:25;;;;;;;1.42;1.20;;;24.30;56.60;;;;;;4996756;28;20208;-74
2022/08/02 02:37:53;;;;;;;1.48;1.38;;;24.30;56.60;;;;;;4996978;28;20275;-74
2022/08/02 02:40:20;;;;;;;1.10;1.10;;;24.30;56.60;;;;;;4996322;28;20201;-75
2022/08/02 02:42:48;;;;;;;1.58;1.08;;;24.30;56.60;;;;;;4996395;28;20254;-74
2022/08/02 02:45:14;;;;;;;2.08;1.40;;;24.30;56.70;;;;;;4980704;28;20197;-75
2022/08/02 02:47:42;;;;;;;1.70;1.60;;;24.30;56.70;;;;;;4996320;28;20244;-74
2022/08/02 02:50:10;;;;;;;1.50;1.40;;;24.30;56.70;;;;;;4996340;28;20577;-75
2022/08/02 02:52:37;;;;;;;1.30;1.20;;;24.30;56.70;;;;;;4996653;28;20193;-75
2022/08/02 02:55:06;;;;;;;1.63;1.23;;;24.20;56.60;;;;;;4996720;28;20196;-74
2022/08/02 02:57:35;;;;;;;1.48;1.38;;;24.20;56.60;;;;;;4997681;28;20221;-74
2022/08/02 03:00:03;;;;;;;1.75;1.33;;;24.20;56.70;;;;;;4996237;28;20663;-74
2022/08/02 03:02:29;;;;;;;1.20;1.20;;;24.20;56.60;;;;;;4996606;28;20192;-75
2022/08/02 03:04:57;;;;;;;2.00;1.20;;;24.20;56.60;;;;;;4996502;28;20212;-74
2022/08/02 03:07:23;;;;;;;1.10;1.10;;;24.20;56.60;;;;;;4996496;28;20227;-74
2022/08/02 03:09:51;;;;;;;1.58;1.20;;;24.20;56.60;;;;;;4996154;28;20319;-75
2022/08/02 03:12:19;;;;;;;2.50;1.40;;;24.20;56.40;;;;;;4996277;28;20598;-75
2022/08/02 03:14:46;;;;;;;1.48;1.33;;;24.20;56.40;;;;;;4996169;28;20231;-74
2022/08/02 03:17:13;;;;;;;1.38;1.27;;;24.20;56.40;;;;;;4980311;28;20219;-74
2022/08/02 03:19:40;;;;;;;1.63;1.52;;;24.20;56.60;;;;;;4996326;28;20671;-74
2022/08/02 03:22:07;;;;;;;2.10;1.45;;;24.20;56.60;;;;;;4996987;28;20208;-74
2022/08/02 03:24:35;;;;;;;1.85;1.35;;;24.20;56.60;;;;;;4999747;28;20229;-74
2022/08/02 03:27:01;;;;;;;1.50;1.40;;;24.20;56.40;;;;;;4999883;28;20279;-74
2022/08/02 03:29:30;;;;;;;1.60;1.50;;;24.20;56.40;;;;;;5017193;28;20288;-74
2022/08/02 03:31:57;;;;;;;2.60;1.50;;;24.30;56.30;;;;;;4983706;28;20614;-74
2022/08/02 03:34:24;;;;;;;1.48;1.30;;;24.30;56.10;;;;;;4999853;28;20647;-74
2022/08/02 03:36:52;;;;;;;2.17;1.52;;;24.30;56.10;;;;;;4999737;28;20225;-74
2022/08/02 03:39:19;;;;;;;1.42;1.33;;;24.40;56.00;;;;;;5017091;28;20272;-74
2022/08/02 03:41:47;;;;;;;1.15;1.15;;;24.40;55.90;;;;;;4999373;28;20220;-74
2022/08/02 03:44:14;;;;;;;1.63;1.52;;;24.30;55.80;;;;;;4999462;28;20203;-74
2022/08/02 03:46:43;;;;;;;3.17;1.40;;;24.40;55.80;;;;;;4999545;28;20315;-74
2022/08/02 03:49:09;;;;;;;2.22;1.40;;;24.40;55.80;;;;;;4999423;28;20229;-74
2022/08/02 03:51:36;;;;;;;1.40;1.30;;;24.40;55.60;;;;;;4999432;28;20201;-74
2022/08/02 03:54:03;;;;;;;1.45;1.30;;;24.40;55.60;;;;;;4999405;28;20208;-74
2022/08/02 03:56:30;;;;;;;1.30;1.20;;;24.30;55.60;;;;;;5000015;28;20225;-74
2022/08/02 03:59:10;;;;;;;1.45;1.35;;;24.30;55.50;;;;;;5001189;28;20189;-74
2022/08/02 04:01:37;;;;;;;1.27;1.20;;;24.40;55.70;;;;;;5007003;28;20188;-74
2022/08/02 04:04:06;;;;;;;1.38;1.27;;;24.30;55.70;;;;;;4999715;28;20264;-74
2022/08/02 04:06:33;;;;;;;1.20;1.10;;;24.40;55.70;;;;;;5017534;28;20609;-74
2022/08/02 04:09:00;;;;;;;2.03;1.30;;;24.30;55.60;;;;;;4998843;28;20227;-74
2022/08/02 04:11:33;;;;;;;1.90;1.20;;;24.30;55.70;;;;;;4998980;28;20197;-74
2022/08/02 04:14:01;;;;;;;2.13;1.30;;;24.30;55.60;;;;;;4998934;28;20231;-75
2022/08/02 04:16:31;;;;;;;1.30;1.20;;;24.30;55.70;;;;;;4999092;28;20594;-74
2022/08/02 04:19:01;;;;;;;1.30;1.20;;;24.30;55.60;;;;;;4983389;28;20185;-74
2022/08/02 04:21:32;;;;;;;2.13;1.30;;;24.30;55.50;;;;;;4999580;28;20205;-75
2022/08/02 04:24:01;;;;;;;2.30;1.40;;;24.30;55.50;;;;;;5016376;28;20192;-74
2022/08/02 04:26:28;;;;;;;2.90;1.30;;;24.30;55.50;;;;;;5000003;28;20221;-74
2022/08/02 04:28:54;;;;;;;1.40;1.30;;;24.30;55.70;;;;;;4998659;28;20236;-75
2022/08/02 04:31:21;;;;;;;1.77;1.30;;;24.30;55.60;;;;;;4998695;28;20197;-75
2022/08/02 04:33:49;;;;;;;1.50;1.30;;;24.30;55.50;;;;;;4998370;28;20212;-74
2022/08/02 04:36:16;;;;;;;3.50;1.35;;;24.30;55.50;;;;;;4998599;28;20807;-74
2022/08/02 04:38:44;;;;;;;1.50;1.40;;;24.30;55.40;;;;;;4999684;28;20200;-74
2022/08/02 04:41:12;;;;;;;2.17;1.50;;;24.30;55.30;;;;;;4999214;28;20638;-74
2022/08/02 04:43:38;;;;;;;1.80;1.50;;;24.30;55.90;;;;;;4982419;28;20204;-74
2022/08/02 04:46:05;;;;;;;1.80;1.65;;;24.00;56.50;;;;;;4982291;28;20224;-74
2022/08/02 04:48:32;;;;;;;1.60;1.50;;;23.70;57.50;;;;;;4998877;28;20213;-73
2022/08/02 04:50:59;;;;;;;2.30;1.52;;;23.50;57.40;;;;;;4998376;28;20208;-74
2022/08/02 04:53:26;;;;;;;2.95;1.70;;;23.30;58.50;;;;;;4998320;28;20287;-73
2022/08/02 04:55:55;;;;;;;4.38;1.70;;;23.10;59.00;;;;;;4982293;28;20228;-74
2022/08/02 04:58:22;;;;;;;1.80;1.70;;;23.10;59.30;;;;;;4998984;28;20251;-74
2022/08/02 05:00:49;;;;;;;2.78;1.70;;;22.90;59.70;;;;;;4982230;28;20296;-74
2022/08/02 05:03:16;;;;;;;4.82;1.73;;;23.00;60.00;;;;;;4998261;28;20671;-74
2022/08/02 05:05:43;;;;;;;1.80;1.70;;;23.00;60.00;;;;;;4998135;28;20193;-74
2022/08/02 05:08:10;;;;;;;2.25;1.45;;;23.00;60.10;;;;;;4982658;28;20231;-74
2022/08/02 05:10:37;;;;;;;2.88;1.73;;;22.90;60.30;;;;;;4982005;28;20201;-74
2022/08/02 05:13:06;;;;;;;1.58;1.45;;;23.10;59.60;;;;;;5000808;28;20221;-73
2022/08/02 05:15:33;;;;;;;1.67;1.50;;;23.40;59.00;;;;;;4998587;28;20259;-74
2022/08/02 05:18:00;;;;;;;1.70;1.60;;;23.60;58.50;;;;;;4968178;28;20196;-74
2022/08/02 05:20:27;;;;;;;2.53;1.45;;;23.80;58.10;;;;;;4997861;28;20201;-74
2022/08/02 05:22:55;;;;;;;2.13;1.50;;;24.00;57.70;;;;;;4997759;28;20204;-73
2022/08/02 05:25:22;;;;;;;1.88;1.50;;;24.10;57.50;;;;;;4997561;28;20300;-74
2022/08/02 05:27:49;;;;;;;2.40;1.40;;;24.30;57.30;;;;;;4997529;28;20220;-73
2022/08/02 05:30:18;;;;;;;1.63;1.40;;;24.40;56.90;;;;;;4997170;28;20201;-74
2022/08/02 05:32:46;;;;;;;1.45;1.35;;;24.60;56.80;;;;;;4997683;28;20240;-74
2022/08/02 05:35:13;;;;;;;1.70;1.48;;;24.70;56.50;;;;;;4997275;28;20287;-73
2022/08/02 05:37:40;;;;;;;2.22;1.48;;;24.90;56.30;;;;;;4997420;28;20713;-73
2022/08/02 05:40:08;;;;;;;1.60;1.50;;;25.00;56.10;;;;;;4997243;28;20201;-74
2022/08/02 05:42:35;;;;;;;2.65;1.50;;;25.10;55.90;;;;;;5014710;28;20591;-73
2022/08/02 05:45:05;;;;;;;2.53;1.70;;;25.20;55.80;;;;;;4996826;28;20235;-75
2022/08/02 05:47:34;;;;;;;1.83;1.50;;;25.30;55.60;;;;;;4997358;28;20216;-74
2022/08/02 05:50:00;;;;;;;2.13;1.70;;;25.30;55.40;;;;;;4997933;28;20200;-74
2022/08/02 05:52:34;;;;;;;2.35;1.50;;;25.40;55.10;;;;;;4997111;28;20215;-73
2022/08/02 05:55:05;;;;;;;2.00;1.60;;;25.50;54.70;;;;;;4996899;28;20201;-74
2022/08/02 05:57:38;;;;;;;2.00;1.42;;;25.60;54.60;;;;;;4997328;28;20224;-74
2022/08/02 06:00:08;;;;;;;1.40;1.30;;;25.70;54.10;;;;;;5015658;28;20692;-74
2022/08/02 06:03:04;;;;;;;1.63;1.40;;;25.90;53.80;;;;;;4997927;28;20203;-74
2022/08/02 06:05:33;;;;;;;1.40;1.30;;;26.00;53.50;;;;;;4996573;28;20235;-74
2022/08/02 06:08:00;;;;;;;1.98;1.30;;;26.20;53.10;;;;;;4996936;28;20208;-74
2022/08/02 06:10:27;;;;;;;1.45;1.35;;;26.40;52.70;;;;;;5014548;28;20656;-74
2022/08/02 06:13:01;;;;;;;2.78;1.33;;;26.60;52.30;;;;;;4996628;28;20200;-73
2022/08/02 06:15:28;;;;;;;2.55;1.50;;;26.70;51.80;;;;;;4980498;28;20196;-74
2022/08/02 06:17:55;;;;;;;2.30;1.50;;;26.90;51.50;;;;;;4996754;28;20255;-74
2022/08/02 06:20:24;;;;;;;1.98;1.38;;;26.90;51.20;;;;;;4996671;28;20199;-73
2022/08/02 06:22:51;;;;;;;2.22;1.40;;;27.00;51.00;;;;;;4996678;28;20200;-74
2022/08/02 06:25:20;;;;;;;1.60;1.50;;;27.10;51.00;;;;;;4996581;28;20658;-74
2022/08/02 06:27:47;;;;;;;1.67;1.25;;;27.10;50.90;;;;;;4996403;28;20212;-73
2022/08/02 06:30:14;;;;;;;1.85;1.50;;;27.10;50.90;;;;;;4996511;28;20203;-73
2022/08/02 06:32:41;;;;;;;1.40;1.30;;;27.20;50.80;;;;;;4996535;28;20200;-74
2022/08/02 06:35:09;;;;;;;1.50;1.40;;;27.20;50.60;;;;;;4980298;28;20254;-74
2022/08/02 06:37:38;;;;;;;1.42;1.33;;;27.40;50.40;;;;;;5013942;28;20208;-74
2022/08/02 06:40:11;;;;;;;1.33;1.23;;;27.40;50.10;;;;;;4996418;28;20207;-73
2022/08/02 06:42:44;;;;;;;1.60;1.50;;;27.60;49.90;;;;;;4997107;28;20534;-74
2022/08/02 06:45:13;;;;;;;2.03;1.48;;;27.70;49.70;;;;;;4996640;28;20212;-74
2022/08/02 06:47:40;;;;;;;1.85;1.55;;;27.70;49.50;;;;;;4996451;28;20215;-74
2022/08/02 06:50:08;;;;;;;1.55;1.42;;;27.80;49.40;;;;;;5013842;28;20192;-74
2022/08/02 06:52:35;;;;;;;1.23;1.23;;;27.90;49.30;;;;;;4996476;28;20674;-74
2022/08/02 06:55:04;;;;;;;1.60;1.50;;;27.90;49.00;;;;;;4996374;28;20204;-74
2022/08/02 06:57:32;;;;;;;1.60;1.50;;;28.00;48.90;;;;;;4999562;28;20219;-74
2022/08/02 07:00:01;;;;;;;1.50;1.40;;;28.10;48.70;;;;;;5000438;28;20203;-74
2022/08/02 07:02:28;;;;;;;3.05;1.42;;;28.10;48.60;;;;;;5000167;28;20290;-74
2022/08/02 07:04:56;;;;;;;1.63;1.20;;;28.10;48.50;;;;;;5000182;28;20267;-74
2022/08/02 07:07:23;;;;;;;1.50;1.40;;;28.20;48.50;;;;;;4984054;28;20562;-73
2022/08/02 07:09:50;;;;;;;1.60;1.48;;;28.30;48.30;;;;;;4999908;28;20219;-74
2022/08/02 07:12:19;;;;;;;2.25;1.60;;;28.30;48.10;;;;;;4999773;28;20567;-74
2022/08/02 07:14:46;;;;;;;1.70;1.48;;;28.40;48.00;;;;;;5000286;28;20291;-74
2022/08/02 07:17:13;;;;;;;1.25;1.20;;;28.50;47.90;;;;;;5000283;28;20224;-73
2022/08/02 07:19:40;;;;;;;1.90;1.55;;;28.50;47.60;;;;;;5000217;28;20196;-74
2022/08/02 07:22:08;;;;;;;1.77;1.30;;;28.60;47.40;;;;;;4999887;28;20262;-74
2022/08/02 07:24:35;;;;;;;1.58;1.48;;;28.70;47.40;;;;;;4999837;28;20208;-74
2022/08/02 07:27:02;;;;;;;1.27;1.23;;;28.80;47.10;;;;;;5000090;28;20266;-74
2022/08/02 07:29:30;;;;;;;1.75;1.48;;;28.90;47.00;;;;;;4999636;28;20218;-74
2022/08/02 07:31:58;;;;;;;1.50;1.40;;;29.00;46.90;;;;;;4999803;28;20629;-74
2022/08/02 07:34:25;;;;;;;1.55;1.45;;;29.00;46.70;;;;;;4999616;28;20202;-74
2022/08/02 07:36:51;;;;;;;1.40;1.30;;;29.10;46.60;;;;;;4999899;28;20235;-74
2022/08/02 07:39:19;;;;;;;1.50;1.40;;;29.10;46.40;;;;;;4999676;28;20655;-74
2022/08/02 07:41:50;;;;;;;1.60;1.50;;;29.20;46.30;;;;;;4999920;28;20212;-73
2022/08/02 07:44:17;;;;;;;1.55;1.45;;;29.20;46.20;;;;;;4999892;28;20188;-74
2022/08/02 07:46:45;;;;;;;1.50;1.40;;;29.20;46.10;;;;;;4999389;28;20230;-74
2022/08/02 07:49:17;;;;;;;2.28;1.40;;;29.20;46.20;;;;;;4999403;28;20271;-74
2022/08/02 07:51:44;;;;;;;1.85;1.55;;;29.20;46.30;;;;;;5016944;28;20303;-74
2022/08/02 07:54:11;;;;;;;1.30;1.20;;;29.20;46.20;;;;;;4983474;28;20207;-73
2022/08/02 07:56:38;;;;;;;1.75;1.60;;;29.20;46.10;;;;;;5016817;28;20208;-74
2022/08/02 07:59:05;;;;;;;1.35;1.35;;;29.30;46.10;;;;;;4999352;28;20187;-74
2022/08/02 08:01:32;;;;;;;2.00;1.40;;;29.30;45.90;;;;;;4999125;28;20581;-74
2022/08/02 08:04:00;;;;;;;1.58;1.48;;;29.30;45.70;;;;;;4999163;28;20214;-74
2022/08/02 08:06:27;;;;;;;1.60;1.50;;;29.40;45.70;;;;;;4999079;28;20687;-73
2022/08/02 08:08:55;;;;;;;1.65;1.55;;;29.40;45.50;;;;;;4999142;28;20299;-74
2022/08/02 08:11:22;;;;;;;1.60;1.50;;;29.50;45.60;;;;;;4999063;28;20204;-74
2022/08/02 08:13:50;;;;;;;2.47;1.50;;;29.50;45.50;;;;;;4999474;28;20200;-74
2022/08/02 08:16:17;;;;;;;2.00;1.52;;;29.50;45.50;;;;;;4999471;28;20703;-74
2022/08/02 08:18:44;;;;;;;1.60;1.50;;;29.50;45.40;;;;;;4999177;28;20196;-74
2022/08/02 08:21:12;;;;;;;1.60;1.50;;;29.60;45.30;;;;;;4999033;28;20207;-74
2022/08/02 08:23:40;;;;;;;1.45;1.35;;;29.60;45.30;;;;;;4998829;28;20663;-74
2022/08/02 08:26:07;;;;;;;1.67;1.50;;;29.60;45.90;;;;;;4999088;28;20713;-73
2022/08/02 08:28:34;;;;;;;1.42;1.33;;;29.60;45.20;;;;;;4998821;28;20274;-73
2022/08/02 08:31:01;;;;;;;1.88;1.50;;;29.60;45.20;;;;;;5016718;28;20559;-74
2022/08/02 08:33:28;;;;;;;1.65;1.55;;;29.70;45.10;;;;;;4998819;28;20278;-74
2022/08/02 08:35:56;;;;;;;1.60;1.50;;;29.70;45.10;;;;;;4999141;28;20267;-73
2022/08/02 08:38:24;;;;;;;1.60;1.50;;;29.70;45.10;;;;;;5000928;28;20295;-74
2022/08/02 08:40:51;;;;;;;1.85;1.52;;;29.70;45.00;;;;;;4999452;28;20258;-74
2022/08/02 08:43:18;;;;;;;1.50;1.40;;;29.70;45.00;;;;;;4999006;28;20196;-74
2022/08/02 08:45:45;;;;;;;1.60;1.40;;;29.70;45.00;;;;;;4998372;28;20224;-74
2022/08/02 08:48:14;;;;;;;1.50;1.40;;;29.70;44.90;;;;;;4999195;28;20581;-74
2022/08/02 08:50:46;;;;;;;1.45;1.35;;;29.80;45.00;;;;;;4982354;28;20196;-74
2022/08/02 08:53:13;;;;;;;1.42;1.33;;;29.80;45.00;;;;;;4998260;28;20196;-74
2022/08/02 08:55:42;;;;;;;1.60;1.50;;;29.80;45.20;;;;;;4998552;28;20200;-74
2022/08/02 08:58:09;;;;;;;1.60;1.50;;;29.80;44.80;;;;;;4982531;28;20279;-74
2022/08/02 09:00:36;;;;;;;2.20;1.60;;;29.80;44.70;;;;;;4998368;28;20188;-74
2022/08/02 09:03:03;;;;;;;1.45;1.35;;;29.80;44.70;;;;;;4998283;28;20211;-74
2022/08/02 09:05:30;;;;;;;1.50;1.40;;;29.80;44.70;;;;;;4998404;28;20729;-74
2022/08/02 09:07:57;;;;;;;1.58;1.48;;;29.80;44.70;;;;;;4999091;28;20206;-73
2022/08/02 09:10:38;;;;;;;1.80;1.50;;;29.80;44.60;;;;;;4999421;28;20220;-74
2022/08/02 09:13:15;;;;;;;1.63;1.52;;;29.80;44.50;;;;;;4999270;28;20196;-74
2022/08/02 09:15:43;;;;;;;1.60;1.50;;;29.90;44.50;;;;;;4998411;28;20196;-74
2022/08/02 09:18:10;;;;;;;1.70;1.42;;;29.90;44.50;;;;;;4998126;28;20218;-74
2022/08/02 09:20:52;;;;;;;1.50;1.40;;;29.90;44.40;;;;;;4997157;28;20192;-74
2022/08/02 09:23:21;;;;;;;1.60;1.50;;;29.90;44.40;;;;;;4998066;28;20199;-74
2022/08/02 09:25:55;;;;;;;1.88;1.50;;;29.90;44.40;;;;;;4998214;28;20226;-74
2022/08/02 09:28:27;;;;;;;1.58;1.48;;;29.90;44.30;;;;;;4998097;28;20287;-74
2022/08/02 09:30:57;;;;;;;1.70;1.60;;;29.90;44.30;;;;;;4998171;28;20192;-74
2022/08/02 09:33:27;;;;;;;1.50;1.40;;;29.90;44.40;;;;;;4997962;28;20195;-74
2022/08/02 09:36:01;;;;;;;1.58;1.48;;;29.90;44.30;;;;;;4997608;28;20216;-74
2022/08/02 09:38:29;;;;;;;1.63;1.52;;;29.90;44.30;;;;;;4997823;28;20289;-73
2022/08/02 09:41:04;;;;;;;1.63;1.38;;;29.90;44.30;;;;;;5112170;27;20595;-67
2022/08/02 09:43:41;;;;;;;1.60;1.50;;;29.90;44.30;;;;;;5111720;28;20192;-67
2022/08/02 09:46:13;;;;;;;1.50;1.40;;;29.90;44.30;;;;;;5110440;28;20216;-68
2022/08/02 09:48:50;;;;;;;1.67;1.58;;;29.90;44.30;;;;;;5110720;28;20203;-67
2022/08/02 09:51:19;;;;;;;1.70;1.60;;;29.90;44.30;;;;;;5110743;28;20660;-67
2022/08/02 09:53:47;;;;;;;1.50;1.40;;;29.90;44.20;;;;;;5112520;28;20185;-68
2022/08/02 09:56:17;;;;;;;1.50;1.40;;;29.90;44.20;;;;;;5111591;28;20296;-67
2022/08/02 09:58:44;;;;;;;1.50;1.40;;;29.90;44.30;;;;;;5111813;28;20185;-67
2022/08/02 10:01:11;;;;;;;1.75;1.50;;;29.90;44.30;;;;;;5111575;28;20708;-68
2022/08/02 10:03:50;;;;;;;1.55;1.45;;;29.90;44.40;;;;;;5123441;28;20188;-67
2022/08/02 10:06:17;;;;;;;1.90;1.38;;;29.80;44.40;;;;;;5111346;28;20209;-68
2022/08/02 10:08:44;;;;;;;1.60;1.50;;;29.90;44.40;;;;;;5109980;28;20593;-67
2022/08/02 10:11:11;;;;;;;1.60;1.50;;;29.80;44.40;;;;;;5111093;28;20671;-67
2022/08/02 10:13:40;;;;;;;1.52;1.42;;;29.80;44.40;;;;;;5109923;28;20203;-68
2022/08/02 10:16:06;;;;;;;1.50;1.40;;;29.80;44.50;;;;;;5111083;28;20291;-67
2022/08/02 10:18:34;;;;;;;1.70;1.60;;;29.80;44.50;;;;;;5111192;28;20241;-67
2022/08/02 10:21:02;;;;;;;1.40;1.30;;;29.80;44.60;;;;;;5110870;28;20201;-68
2022/08/02 10:23:29;;;;;;;1.60;1.50;;;29.70;44.50;;;;;;5109805;28;20205;-67
2022/08/02 10:25:57;;;;;;;1.50;1.40;;;29.70;44.60;;;;;;5110853;28;20237;-67
2022/08/02 10:28:27;;;;;;;1.58;1.48;;;29.70;44.70;;;;;;5110049;28;20610;-67
2022/08/02 10:30:56;;;;;;;1.40;1.30;;;29.60;44.90;;;;;;5109644;28;20541;-67
2022/08/02 10:33:25;;;;;;;1.90;1.80;;;29.50;45.10;;;;;;5109423;28;20197;-67
2022/08/02 10:35:53;;;;;;;1.70;1.60;;;29.30;45.40;;;;;;5110713;28;20217;-67
2022/08/02 10:38:20;;;;;;;1.60;1.50;;;29.30;45.60;;;;;;5110586;28;20189;-67
2022/08/02 10:40:48;;;;;;;1.50;1.40;;;29.20;45.60;;;;;;5109239;28;20254;-67
2022/08/02 10:43:39;;;;;;;1.75;1.65;;;29.20;45.60;;;;;;5109327;28;20201;-67
2022/08/02 10:46:32;;;;;;;1.60;1.50;;;29.20;45.70;;;;;;5109142;28;20301;-67
2022/08/02 10:49:09;;;;;;;1.48;1.38;;;29.20;45.80;;;;;;5109055;28;20185;-67
2022/08/02 10:52:05;;;;;;;1.50;1.40;;;29.10;45.90;;;;;;5100063;28;20204;-68
2022/08/02 10:54:35;;;;;;;1.55;1.45;;;29.10;46.00;;;;;;5095261;28;20720;-67
2022/08/02 10:57:02;;;;;;;1.60;1.50;;;29.10;46.00;;;;;;5095159;28;20198;-67
2022/08/02 10:59:30;;;;;;;1.70;1.60;;;29.10;46.10;;;;;;5096277;28;20206;-67
2022/08/02 11:02:02;;;;;;;1.70;1.60;;;29.10;46.20;;;;;;5095005;28;20231;-67
2022/08/02 11:04:30;;;;;;;1.42;1.33;;;29.00;46.20;;;;;;5096445;28;20213;-67
2022/08/02 11:07:07;;;;;;;1.65;1.55;;;29.00;46.20;;;;;;5096181;28;20617;-67
2022/08/02 11:09:34;;;;;;;1.50;1.40;;;29.00;46.30;;;;;;5096161;28;20185;-67
2022/08/02 11:12:03;;;;;;;1.52;1.42;;;29.00;46.40;;;;;;5096366;28;20189;-67
2022/08/02 11:14:30;;;;;;;1.58;1.48;;;28.90;46.40;;;;;;5094681;28;20236;-67
2022/08/02 11:17:12;;;;;;;1.58;1.48;;;28.90;46.50;;;;;;5094685;28;20193;-67
2022/08/02 11:20:16;;;;;;;1.52;1.42;;;28.90;46.60;;;;;;5095871;28;20699;-67
2022/08/02 11:22:44;;;;;;;1.50;1.40;;;28.80;46.60;;;;;;5054109;28;20197;-67
2022/08/02 11:25:30;;;;;;;1.50;1.40;;;28.80;46.70;;;;;;5095754;28;20208;-67
2022/08/02 11:28:01;;;;;;;1.38;1.30;;;28.80;46.70;;;;;;5095749;28;20253;-67
2022/08/02 11:30:28;;;;;;;1.50;1.40;;;28.80;46.70;;;;;;5096013;28;20178;-67
2022/08/02 11:32:57;;;;;;;1.40;1.30;;;28.80;46.80;;;;;;5095759;28;20761;-67
2022/08/02 11:35:32;;;;;;;1.50;1.40;;;28.80;46.80;;;;;;5095667;28;20213;-67
2022/08/02 11:37:59;;;;;;;1.40;1.30;;;28.80;46.90;;;;;;5094441;28;20585;-67
2022/08/02 11:40:26;;;;;;;1.50;1.40;;;28.80;46.80;;;;;;5095539;28;20232;-67
2022/08/02 11:42:53;;;;;;;1.42;1.33;;;28.80;46.80;;;;;;5094152;28;20262;-67
2022/08/02 11:45:25;;;;;;;1.50;1.40;;;28.80;46.80;;;;;;5095391;28;20578;-67
2022/08/02 11:47:54;;;;;;;1.50;1.40;;;28.80;46.80;;;;;;5095575;28;20205;-67
2022/08/02 11:50:23;;;;;;;1.70;1.60;;;28.80;46.80;;;;;;5094252;28;20192;-67
2022/08/02 11:52:52;;;;;;;1.70;1.60;;;28.80;46.80;;;;;;5094070;28;20233;-67
2022/08/02 11:55:25;;;;;;;1.40;1.30;;;28.80;46.90;;;;;;5093902;28;20213;-67
2022/08/02 11:57:58;;;;;;;1.20;1.20;;;28.70;46.90;;;;;;5094097;28;20197;-67
2022/08/02 12:00:24;;;;;;;1.90;1.80;;;28.70;46.90;;;;;;5093800;28;20243;-67
2022/08/02 12:02:52;;;;;;;1.60;1.50;;;28.70;47.00;;;;;;5092852;28;20193;-67
2022/08/02 12:05:21;;;;;;;1.60;1.50;;;28.60;47.10;;;;;;5093739;28;20217;-67
2022/08/02 12:07:51;;;;;;;1.30;1.30;;;28.60;47.20;;;;;;5093831;28;20193;-68
2022/08/02 12:10:18;;;;;;;1.60;1.50;;;28.50;47.30;;;;;;5077460;22;20226;-75
2022/08/02 12:12:50;;;;;;;1.67;1.58;;;28.50;47.40;;;;;;5054354;28;20195;-74
2022/08/02 12:15:32;;;;;;;1.40;1.30;;;28.50;47.40;;;;;;5053585;28;20217;-75
2022/08/02 12:20:44;;;;;;;1.50;1.40;;;28.50;47.50;;;;;;5033664;28;20212;-75
2022/08/02 12:23:12;;;;;;;1.70;1.60;;;28.40;47.50;;;;;;5033531;28;20654;-75
2022/08/02 12:25:39;;;;;;;1.48;1.40;;;28.50;47.50;;;;;;5033947;28;20297;-74
2022/08/02 12:28:13;;;;;;;1.52;1.42;;;28.50;47.50;;;;;;5033780;28;20199;-76
2022/08/02 12:30:49;;;;;;;1.50;1.40;;;28.40;47.50;;;;;;5035613;28;20187;-76
2022/08/02 12:33:16;;;;;;;1.52;1.42;;;28.50;47.60;;;;;;5033959;28;20194;-75
2022/08/02 12:35:43;;;;;;;1.50;1.40;;;28.50;47.50;;;;;;5033807;28;20245;-76
2022/08/02 12:38:12;;;;;;;1.42;1.38;;;28.50;47.50;;;;;;5033455;28;20568;-75
2022/08/02 12:40:39;;;;;;;1.33;1.30;;;28.50;47.60;;;;;;5034464;28;20247;-75
2022/08/02 12:43:07;;;;;;;1.50;1.40;;;28.50;47.60;;;;;;5017052;28;20717;-75
2022/08/02 12:45:45;;;;;;;1.10;1.10;;;28.50;47.60;;;;;;5033476;28;20200;-75
2022/08/02 12:48:14;;;;;;;1.42;1.33;;;28.50;47.70;;;;;;5033854;28;20559;-76
2022/08/02 12:50:41;;;;;;;1.30;1.20;;;28.50;47.70;;;;;;5030442;28;20187;-74
2022/08/02 12:53:09;;;;;;;1.40;1.30;;;28.40;48.30;;;;;;5036400;28;20662;-76
2022/08/02 12:55:46;;;;;;;1.50;1.40;;;28.40;47.70;;;;;;5035384;28;20192;-76
2022/08/02 12:58:13;;;;;;;1.45;1.40;;;28.40;47.80;;;;;;5034181;28;20199;-76
2022/08/02 13:00:40;;;;;;;1.50;1.40;;;28.40;47.70;;;;;;5033002;28;20219;-76